createdAt,value
2018-06-24T00:01:57.758Z,10.30
2018-06-24T00:04:26.025Z,12.80
2018-06-24T00:06:54.284Z,12.13
2018-06-24T00:09:22.590Z,11.57
2018-06-24T00:11:50.880Z,8.90
2018-06-24T00:14:19.143Z,13.03
2018-06-24T00:16:47.432Z,13.67
2018-06-24T00:19:15.674Z,12.37
2018-06-24T00:21:43.949Z,10.83
2018-06-24T00:24:12.192Z,10.30
2018-06-24T00:26:40.711Z,8.70
2018-06-24T00:29:08.986Z,11.00
2018-06-24T00:31:37.241Z,11.33
2018-06-24T00:34:05.567Z,6.67
2018-06-24T00:36:33.854Z,9.43
2018-06-24T00:39:02.114Z,8.47
2018-06-24T00:41:30.377Z,7.27
2018-06-24T00:43:58.631Z,9.13
2018-06-24T00:46:26.833Z,13.27
2018-06-24T00:48:55.155Z,11.73
2018-06-24T00:51:23.393Z,10.03
2018-06-24T00:53:51.673Z,11.13
2018-06-24T00:56:19.947Z,10.20
2018-06-24T00:58:48.207Z,8.07
2018-06-24T01:01:16.444Z,8.53
2018-06-24T01:03:44.732Z,9.17
2018-06-24T01:06:12.727Z,9.53
2018-06-24T01:08:40.983Z,9.37
2018-06-24T01:11:09.258Z,7.93
2018-06-24T01:13:37.561Z,12.13
2018-06-24T01:16:05.839Z,7.43
2018-06-24T01:18:34.136Z,10.17
2018-06-24T01:21:02.429Z,6.67
2018-06-24T01:23:30.691Z,10.13
2018-06-24T01:25:58.990Z,8.70
2018-06-24T01:28:27.267Z,8.43
2018-06-24T01:30:55.538Z,9.07
2018-06-24T01:33:23.782Z,9.80
2018-06-24T01:35:52.039Z,9.97
2018-06-24T01:38:20.281Z,10.50
2018-06-24T01:40:48.599Z,9.97
2018-06-24T01:43:16.872Z,9.50
2018-06-24T01:45:45.111Z,12.43
2018-06-24T01:48:13.367Z,9.67
2018-06-24T01:50:41.631Z,7.17
2018-06-24T01:53:09.926Z,10.27
2018-06-24T01:55:38.187Z,8.33
2018-06-24T01:58:06.503Z,7.17
2018-06-24T02:00:34.513Z,6.53
2018-06-24T02:03:02.794Z,6.17
2018-06-24T02:05:31.072Z,9.03
2018-06-24T02:07:59.347Z,9.87
2018-06-24T02:10:27.603Z,10.03
2018-06-24T02:12:56.255Z,7.67
2018-06-24T02:15:24.252Z,10.27
2018-06-24T02:17:52.497Z,9.23
2018-06-24T02:20:20.478Z,8.40
2018-06-24T02:22:55.547Z,7.57
2018-06-24T02:25:23.827Z,11.93
2018-06-24T02:27:52.075Z,10.33
2018-06-24T02:30:20.347Z,7.57
2018-06-24T02:32:48.604Z,6.93
2018-06-24T02:35:16.602Z,11.73
2018-06-24T02:37:44.868Z,9.70
2018-06-24T02:40:13.151Z,10.13
2018-06-24T02:42:41.415Z,8.63
2018-06-24T02:45:09.455Z,9.67
2018-06-24T02:47:37.795Z,10.07
2018-06-24T02:50:06.078Z,7.70
2018-06-24T02:52:35.128Z,9.10
2018-06-24T02:55:03.165Z,8.97
2018-06-24T02:57:31.431Z,8.67
2018-06-24T02:59:59.651Z,8.73
2018-06-24T03:02:27.971Z,8.33
2018-06-24T03:04:56.195Z,8.53
2018-06-24T03:07:24.218Z,8.67
2018-06-24T03:09:59.005Z,6.67
2018-06-24T03:12:27.274Z,12.20
2018-06-24T03:14:55.241Z,6.83
2018-06-24T03:17:23.541Z,9.83
2018-06-24T03:19:51.811Z,9.20
2018-06-24T03:22:20.100Z,8.27
2018-06-24T03:24:48.368Z,9.60
2018-06-24T03:27:16.624Z,8.80
2018-06-24T03:29:44.919Z,7.30
2018-06-24T03:32:13.168Z,8.40
2018-06-24T03:34:41.452Z,10.20
2018-06-24T03:37:09.748Z,9.77
2018-06-24T03:39:38.019Z,6.13
2018-06-24T03:42:06.328Z,7.00
2018-06-24T03:44:34.646Z,8.83
2018-06-24T03:47:02.635Z,6.77
2018-06-24T03:49:30.905Z,7.13
2018-06-24T03:51:58.873Z,7.70
2018-06-24T03:54:26.851Z,11.60
2018-06-24T03:56:55.149Z,8.93
2018-06-24T03:59:23.398Z,9.83
2018-06-24T04:01:51.659Z,7.80
2018-06-24T04:04:19.763Z,7.97
2018-06-24T04:06:48.116Z,8.40
2018-06-24T04:09:16.649Z,12.10
2018-06-24T04:11:45.104Z,9.73
2018-06-24T04:14:13.656Z,8.83
2018-06-24T04:16:42.158Z,9.20
2018-06-24T04:19:10.763Z,10.77
2018-06-24T04:21:39.282Z,7.33
2018-06-24T04:24:07.791Z,8.27
2018-06-24T04:26:36.259Z,11.63
2018-06-24T04:29:04.818Z,11.40
2018-06-24T04:31:33.524Z,8.33
2018-06-24T04:34:01.910Z,8.40
2018-06-24T04:36:30.442Z,9.80
2018-06-24T04:38:58.896Z,9.77
2018-06-24T04:41:27.415Z,7.20
2018-06-24T04:43:55.844Z,10.80
2018-06-24T04:46:24.358Z,8.10
2018-06-24T04:48:52.863Z,9.20
2018-06-24T04:51:21.403Z,11.67
2018-06-24T04:53:49.921Z,9.17
2018-06-24T04:56:18.401Z,10.57
2018-06-24T04:58:46.913Z,10.27
2018-06-24T05:01:15.449Z,9.23
2018-06-24T05:03:44.039Z,17.47
2018-06-24T05:06:12.517Z,12.97
2018-06-24T05:08:41.116Z,16.87
2018-06-24T05:11:09.592Z,17.37
2018-06-24T05:13:38.424Z,16.80
2018-06-24T05:16:06.593Z,16.67
2018-06-24T05:18:35.010Z,12.80
2018-06-24T05:21:03.515Z,15.70
2018-06-24T05:23:32.034Z,16.30
2018-06-24T05:26:00.603Z,16.50
2018-06-24T05:28:29.112Z,24.73
2018-06-24T05:30:57.620Z,19.17
2018-06-24T05:33:26.023Z,20.43
2018-06-24T05:35:54.480Z,23.17
2018-06-24T05:38:23.005Z,24.40
2018-06-24T05:40:51.296Z,24.80
2018-06-24T05:43:19.599Z,23.33
2018-06-24T05:45:47.874Z,21.57
2018-06-24T05:48:16.149Z,23.67
2018-06-24T05:50:44.471Z,22.87
2018-06-24T05:53:12.701Z,35.87
2018-06-24T05:55:41.003Z,22.57
2018-06-24T05:58:09.256Z,21.53
2018-06-24T06:00:37.586Z,23.57
2018-06-24T06:03:06.027Z,19.43
2018-06-24T06:05:34.359Z,21.87
2018-06-24T06:08:02.636Z,22.67
2018-06-24T06:10:30.963Z,26.30
2018-06-24T06:12:58.977Z,25.40
2018-06-24T06:15:27.263Z,24.10
2018-06-24T06:17:55.570Z,20.47
2018-06-24T06:20:23.880Z,23.67
2018-06-24T06:22:52.234Z,18.23
2018-06-24T06:25:20.575Z,20.10
2018-06-24T06:27:48.855Z,19.40
2018-06-24T06:30:17.179Z,19.23
2018-06-24T06:32:45.475Z,17.83
2018-06-24T06:35:13.723Z,18.53
2018-06-24T06:37:42.005Z,20.17
2018-06-24T06:40:10.313Z,23.23
2018-06-24T06:42:38.651Z,22.90
2018-06-24T06:45:07.054Z,26.10
2018-06-24T06:47:35.253Z,17.23
2018-06-24T06:50:03.612Z,23.30
2018-06-24T06:52:31.887Z,20.23
2018-06-24T06:55:00.166Z,19.63
2018-06-24T06:57:28.488Z,17.03
2018-06-24T06:59:56.735Z,22.77
2018-06-24T07:02:25.010Z,17.00
2018-06-24T07:04:53.291Z,24.00
2018-06-24T07:07:21.622Z,18.97
2018-06-24T07:09:49.919Z,18.10
2018-06-24T07:12:18.388Z,18.00
2018-06-24T07:14:47.216Z,25.97
2018-06-24T07:17:15.491Z,20.33
2018-06-24T07:19:44.095Z,21.67
2018-06-24T07:22:12.611Z,23.00
2018-06-24T07:24:41.063Z,23.50
2018-06-24T07:27:09.468Z,20.03
2018-06-24T07:29:37.772Z,18.50
2018-06-24T07:32:06.425Z,21.37
2018-06-24T07:34:34.736Z,19.30
2018-06-24T07:37:03.459Z,18.37
2018-06-24T07:39:31.866Z,20.03
2018-06-24T07:42:00.297Z,22.27
2018-06-24T07:44:28.599Z,19.77
2018-06-24T07:46:57.202Z,18.50
2018-06-24T07:49:25.574Z,17.93
2018-06-24T07:51:53.870Z,15.30
2018-06-24T07:54:22.156Z,16.90
2018-06-24T07:56:50.432Z,22.97
2018-06-24T07:59:18.726Z,15.67
2018-06-24T08:01:47.002Z,13.93
2018-06-24T08:04:15.292Z,14.50
2018-06-24T08:06:43.560Z,19.03
2018-06-24T08:09:12.625Z,17.07
2018-06-24T08:11:41.910Z,13.33
2018-06-24T08:14:10.216Z,12.87
2018-06-24T08:16:38.493Z,15.33
2018-06-24T08:19:06.826Z,12.63
2018-06-24T08:21:35.047Z,12.23
2018-06-24T08:24:03.327Z,14.70
2018-06-24T08:26:31.582Z,13.97
2018-06-24T08:28:59.877Z,18.37
2018-06-24T08:31:28.123Z,13.40
2018-06-24T08:33:56.431Z,16.67
2018-06-24T08:36:24.741Z,15.83
2018-06-24T08:38:52.776Z,15.70
2018-06-24T08:41:21.084Z,14.83
2018-06-24T08:43:49.116Z,11.77
2018-06-24T08:46:17.434Z,17.27
2018-06-24T08:48:45.421Z,10.53
2018-06-24T08:51:13.735Z,11.43
2018-06-24T08:53:42.014Z,10.93
2018-06-24T08:56:10.282Z,13.87
2018-06-24T08:58:38.582Z,13.57
2018-06-24T09:01:06.895Z,12.17
2018-06-24T09:03:35.214Z,15.13
2018-06-24T09:06:03.559Z,12.33
2018-06-24T09:08:31.869Z,13.70
2018-06-24T09:11:00.170Z,12.73
2018-06-24T09:13:28.892Z,17.90
2018-06-24T09:15:57.241Z,11.37
2018-06-24T09:18:25.487Z,15.40
2018-06-24T09:20:53.748Z,12.63
2018-06-24T09:23:22.059Z,10.93
2018-06-24T09:25:50.388Z,11.50
2018-06-24T09:28:18.709Z,10.73
2018-06-24T09:30:47.046Z,14.77
2018-06-24T09:33:15.327Z,14.13
2018-06-24T09:35:43.724Z,18.57
2018-06-24T09:38:12.021Z,12.13
2018-06-24T09:40:40.308Z,14.47
2018-06-24T09:43:08.648Z,13.80
2018-06-24T09:45:36.887Z,12.10
2018-06-24T09:48:05.426Z,13.20
2018-06-24T09:50:34.072Z,11.43
2018-06-24T09:53:02.991Z,18.02
2018-06-24T09:55:31.366Z,16.02
2018-06-24T09:57:59.709Z,14.78
2018-06-24T10:00:27.986Z,11.48
2018-06-24T10:02:56.393Z,15.30
2018-06-24T10:05:24.747Z,12.58
2018-06-24T10:07:53.021Z,17.75
2018-06-24T10:10:21.364Z,19.60
2018-06-24T10:12:49.661Z,15.80
2018-06-24T10:15:17.684Z,12.45
2018-06-24T10:17:45.998Z,14.30
2018-06-24T10:20:14.365Z,17.07
2018-06-24T10:22:42.595Z,9.30
2018-06-24T10:25:10.946Z,13.08
2018-06-24T10:27:38.945Z,13.25
2018-06-24T10:30:07.512Z,16.85
2018-06-24T10:32:35.871Z,11.85
2018-06-24T10:35:04.347Z,13.28
2018-06-24T10:37:32.752Z,11.28
2018-06-24T10:40:01.072Z,9.45
2018-06-24T10:42:29.369Z,9.43
2018-06-24T10:44:57.609Z,9.93
2018-06-24T10:47:25.879Z,12.47
2018-06-24T10:49:54.298Z,12.68
2018-06-24T10:52:22.598Z,9.78
2018-06-24T10:54:50.925Z,12.73
2018-06-24T10:57:19.346Z,11.38
2018-06-24T10:59:47.967Z,11.05
2018-06-24T11:02:16.303Z,9.10
2018-06-24T11:04:44.485Z,10.68
2018-06-24T11:07:12.470Z,12.88
2018-06-24T11:09:40.761Z,13.72
2018-06-24T11:12:09.082Z,11.38
2018-06-24T11:14:37.359Z,8.90
2018-06-24T11:17:05.774Z,11.75
2018-06-24T11:19:34.022Z,7.20
2018-06-24T11:22:02.026Z,8.80
2018-06-24T11:24:30.519Z,12.03
2018-06-24T11:26:58.843Z,8.80
2018-06-24T11:29:27.120Z,10.85
2018-06-24T11:31:55.386Z,7.65
2018-06-24T11:34:23.654Z,9.33
2018-06-24T11:36:51.946Z,13.88
2018-06-24T11:39:20.304Z,9.78
2018-06-24T11:41:48.546Z,12.00
2018-06-24T11:44:16.833Z,8.15
2018-06-24T11:46:45.113Z,11.00
2018-06-24T11:49:13.402Z,9.30
2018-06-24T11:51:41.729Z,10.70
2018-06-24T11:54:09.981Z,7.85
2018-06-24T11:56:38.273Z,9.80
2018-06-24T11:59:06.539Z,7.58
2018-06-24T12:01:34.744Z,9.20
2018-06-24T12:04:03.042Z,6.62
2018-06-24T12:06:31.248Z,6.75
2018-06-24T12:08:59.554Z,7.97
2018-06-24T12:11:27.890Z,10.25
2018-06-24T12:13:56.159Z,8.03
2018-06-24T12:16:24.436Z,7.03
2018-06-24T12:18:52.832Z,6.72
2018-06-24T12:21:21.095Z,10.55
2018-06-24T12:23:49.382Z,7.60
2018-06-24T12:26:17.674Z,7.50
2018-06-24T12:28:46.068Z,8.08
2018-06-24T12:31:14.367Z,4.72
2018-06-24T12:33:42.642Z,6.25
2018-06-24T12:36:10.913Z,3.65
2018-06-24T12:38:39.196Z,5.17
2018-06-24T12:41:07.546Z,5.67
2018-06-24T12:43:35.617Z,6.22
2018-06-24T12:46:03.886Z,4.10
2018-06-24T12:48:32.323Z,6.95
2018-06-24T12:51:00.691Z,6.55
2018-06-24T12:53:28.928Z,3.35
2018-06-24T12:55:57.181Z,7.47
2018-06-24T12:58:25.466Z,7.12
2018-06-24T13:00:54.083Z,6.50
2018-06-24T13:03:21.966Z,6.08
2018-06-24T13:05:50.270Z,6.10
2018-06-24T13:08:18.844Z,5.72
2018-06-24T13:10:47.148Z,4.62
2018-06-24T13:13:19.370Z,3.65
2018-06-24T13:15:48.511Z,2.72
2018-06-24T13:18:16.804Z,4.08
2018-06-24T13:20:45.126Z,6.62
2018-06-24T13:23:13.439Z,3.92
2018-06-24T13:25:41.766Z,3.62
2018-06-24T13:28:10.079Z,8.60
2018-06-24T13:30:38.428Z,4.70
2018-06-24T13:33:06.710Z,4.35
2018-06-24T13:35:35.024Z,3.83
2018-06-24T13:38:03.263Z,5.42
2018-06-24T13:40:31.562Z,4.45
2018-06-24T13:42:59.895Z,3.70
2018-06-24T13:45:28.215Z,3.02
2018-06-24T13:47:56.501Z,4.50
2018-06-24T13:50:24.784Z,4.83
2018-06-24T13:52:53.063Z,5.17
2018-06-24T13:55:21.332Z,2.70
2018-06-24T13:57:50.591Z,2.02
2018-06-24T14:00:18.888Z,4.62
2018-06-24T14:02:47.151Z,4.83
2018-06-24T14:05:15.521Z,5.03
2018-06-24T14:07:43.903Z,7.33
2018-06-24T14:10:12.239Z,3.87
2018-06-24T14:12:40.536Z,10.05
2018-06-24T14:15:08.883Z,7.62
2018-06-24T14:17:37.128Z,6.62
2018-06-24T14:20:06.016Z,5.58
2018-06-24T14:22:34.274Z,5.08
2018-06-24T14:25:02.568Z,4.08
2018-06-24T14:27:30.877Z,5.72
2018-06-24T14:30:00.112Z,4.72
2018-06-24T14:32:28.556Z,4.17
2018-06-24T14:34:56.931Z,4.17
2018-06-24T14:37:25.380Z,5.85
2018-06-24T14:39:53.655Z,5.17
2018-06-24T14:42:21.940Z,3.80
2018-06-24T14:44:50.418Z,4.97
2018-06-24T14:47:18.912Z,5.30
2018-06-24T14:49:47.473Z,4.92
2018-06-24T14:52:15.759Z,5.87
2018-06-24T14:54:44.027Z,5.33
2018-06-24T14:57:12.398Z,3.95
2018-06-24T14:59:40.671Z,6.00
2018-06-24T15:02:08.952Z,6.17
2018-06-24T15:07:11.924Z,3.95
2018-06-24T15:09:40.249Z,5.67
2018-06-24T15:12:08.612Z,7.03
2018-06-24T15:14:36.901Z,3.15
2018-06-24T15:17:06.203Z,5.75
2018-06-24T15:19:34.745Z,6.00
2018-06-24T15:22:03.100Z,4.97
2018-06-24T15:24:31.403Z,4.12
2018-06-24T15:26:59.651Z,4.60
2018-06-24T15:29:27.914Z,6.67
2018-06-24T15:31:56.252Z,8.83
2018-06-24T15:34:24.582Z,7.15
2018-06-24T15:36:52.881Z,5.90
2018-06-24T15:39:21.185Z,5.05
2018-06-24T15:41:49.500Z,5.37
2018-06-24T15:44:17.784Z,5.73
2018-06-24T15:46:46.039Z,5.43
2018-06-24T15:49:14.365Z,3.93
2018-06-24T15:51:42.678Z,4.87
2018-06-24T15:54:10.972Z,6.97
2018-06-24T15:56:39.748Z,5.57
2018-06-24T15:59:08.186Z,4.83
2018-06-24T16:01:36.484Z,4.77
2018-06-24T16:04:04.853Z,5.27
2018-06-24T16:06:33.213Z,8.93
2018-06-24T16:09:01.514Z,6.60
2018-06-24T16:11:29.848Z,11.43
2018-06-24T16:13:57.838Z,7.37
2018-06-24T16:16:26.360Z,5.70
2018-06-24T16:18:54.697Z,7.80
2018-06-24T16:21:22.985Z,7.53
2018-06-24T16:23:51.379Z,10.83
2018-06-24T16:26:19.685Z,7.17
2018-06-24T16:28:48.229Z,5.57
2018-06-24T16:31:16.572Z,8.23
2018-06-24T16:33:44.925Z,7.37
2018-06-24T16:36:13.259Z,7.80
2018-06-24T16:38:41.549Z,6.07
2018-06-24T16:41:09.867Z,5.83
2018-06-24T16:43:38.147Z,6.27
2018-06-24T16:46:06.484Z,7.33
2018-06-24T16:48:35.956Z,7.33
2018-06-24T16:51:03.973Z,11.37
2018-06-24T16:53:32.378Z,6.87
2018-06-24T16:56:00.666Z,6.93
2018-06-24T16:58:29.052Z,6.50
2018-06-24T17:00:57.434Z,7.33
2018-06-24T17:03:25.772Z,9.87
2018-06-24T17:05:54.041Z,7.27
2018-06-24T17:08:22.371Z,9.47
2018-06-24T17:10:50.748Z,7.93
2018-06-24T17:13:19.027Z,7.20
2018-06-24T17:15:47.303Z,14.77
2018-06-24T17:18:15.608Z,6.57
2018-06-24T17:20:43.875Z,9.87
2018-06-24T17:23:12.252Z,6.07
2018-06-24T17:25:40.531Z,11.90
2018-06-24T17:28:08.921Z,12.00
2018-06-24T17:30:37.155Z,6.53
2018-06-24T17:33:05.423Z,9.43
2018-06-24T17:35:33.387Z,6.60
2018-06-24T17:38:01.392Z,6.13
2018-06-24T17:40:30.096Z,6.00
2018-06-24T17:42:58.960Z,8.80
2018-06-24T17:45:27.561Z,8.20
2018-06-24T17:47:56.296Z,6.30
2018-06-24T17:50:24.746Z,5.83
2018-06-24T17:52:53.043Z,6.90
2018-06-24T17:55:21.503Z,5.07
2018-06-24T17:57:49.981Z,7.13
2018-06-24T18:00:18.422Z,4.83
2018-06-24T18:02:46.721Z,5.60
2018-06-24T18:05:15.051Z,7.67
2018-06-24T18:07:43.422Z,3.60
2018-06-24T18:10:11.952Z,5.97
2018-06-24T18:12:40.291Z,7.20
2018-06-24T18:15:08.556Z,7.77
2018-06-24T18:17:36.887Z,5.07
2018-06-24T18:20:05.226Z,4.67
2018-06-24T18:22:33.260Z,6.60
2018-06-24T18:25:01.503Z,4.70
2018-06-24T18:27:29.799Z,5.00
2018-06-24T18:29:58.104Z,5.27
2018-06-24T18:32:26.433Z,6.07
2018-06-24T18:34:54.870Z,7.30
2018-06-24T18:37:23.195Z,3.93
2018-06-24T18:39:51.783Z,4.90
2018-06-24T18:42:20.287Z,4.20
2018-06-24T18:44:48.837Z,8.40
2018-06-24T18:47:17.558Z,6.13
